createdAt,value
2018-09-01T00:00:57.968Z,51.64
2018-09-01T00:01:57.930Z,51.74
2018-09-01T00:02:57.896Z,51.74
2018-09-01T00:03:57.860Z,51.45
2018-09-01T00:04:57.825Z,51.54
2018-09-01T00:05:57.787Z,51.64
2018-09-01T00:06:57.753Z,51.07
2018-09-01T00:07:57.711Z,51.26
2018-09-01T00:08:57.671Z,50.69
2018-09-01T00:09:57.641Z,50.78
2018-09-01T00:10:57.608Z,50.78
2018-09-01T00:11:57.563Z,50.69
2018-09-01T00:12:57.526Z,50.69
2018-09-01T00:13:57.488Z,50.69
2018-09-01T00:14:57.455Z,50.98
2018-09-01T00:15:57.418Z,50.78
2018-09-01T00:16:57.385Z,51.07
2018-09-01T00:17:57.346Z,50.69
2018-09-01T00:18:57.307Z,50.69
2018-09-01T00:19:57.271Z,50.88
2018-09-01T00:20:57.230Z,50.40
2018-09-01T00:21:57.193Z,50.40
2018-09-01T00:22:57.161Z,50.31
2018-09-01T00:23:57.129Z,50.59
2018-09-01T00:24:57.091Z,50.31
2018-09-01T00:25:57.045Z,50.31
2018-09-01T00:26:57.052Z,50.31
2018-09-01T00:27:56.998Z,51.17
2018-09-01T00:28:56.943Z,50.98
2018-09-01T00:29:56.905Z,50.88
2018-09-01T00:30:56.866Z,50.59
2018-09-01T00:31:56.829Z,50.40
2018-09-01T00:32:56.791Z,50.12
2018-09-01T00:33:56.777Z,50.31
2018-09-01T00:34:56.722Z,50.12
2018-09-01T00:35:56.688Z,50.02
2018-09-01T00:36:56.649Z,50.49
2018-09-01T00:37:56.613Z,49.93
2018-09-01T00:38:56.573Z,49.64
2018-09-01T00:39:56.533Z,49.64
2018-09-01T00:40:56.499Z,49.44
2018-09-01T00:41:56.468Z,49.73
2018-09-01T00:42:56.429Z,49.64
2018-09-01T00:43:56.388Z,49.35
2018-09-01T00:44:56.347Z,48.78
2018-09-01T00:45:56.312Z,48.78
2018-09-01T00:46:56.276Z,48.49
2018-09-01T00:47:56.245Z,48.21
2018-09-01T00:48:56.209Z,48.59
2018-09-01T00:49:56.190Z,48.39
2018-09-01T00:50:56.129Z,48.49
2018-09-01T00:51:56.093Z,48.78
2018-09-01T00:52:56.053Z,48.68
2018-09-01T00:53:56.015Z,48.68
2018-09-01T00:54:55.983Z,48.88
2018-09-01T00:55:55.943Z,48.30
2018-09-01T00:56:55.908Z,48.68
2018-09-01T00:57:55.865Z,48.66
2018-09-01T00:58:55.830Z,48.85
2018-09-01T00:59:55.798Z,48.75
2018-09-01T01:00:55.766Z,48.94
2018-09-01T01:01:55.722Z,48.66
2018-09-01T01:02:55.686Z,48.75
2018-09-01T01:03:55.646Z,48.57
2018-09-01T01:04:55.611Z,49.33
2018-09-01T01:05:55.574Z,49.33
2018-09-01T01:06:55.536Z,49.42
2018-09-01T01:07:55.501Z,49.33
2018-09-01T01:08:55.465Z,48.85
2018-09-01T01:09:55.432Z,48.75
2018-09-01T01:10:55.390Z,47.71
2018-09-01T01:11:55.352Z,47.71
2018-09-01T01:12:55.312Z,47.42
2018-09-01T01:13:55.280Z,47.32
2018-09-01T01:14:55.241Z,47.03
2018-09-01T01:15:55.202Z,46.94
2018-09-01T01:16:55.164Z,46.94
2018-09-01T01:17:55.130Z,47.03
2018-09-01T01:18:55.096Z,46.84
2018-09-01T01:19:55.056Z,46.27
2018-09-01T01:20:55.022Z,45.89
2018-09-01T01:21:54.982Z,45.99
2018-09-01T01:22:54.946Z,45.99
2018-09-01T01:23:54.905Z,46.47
2018-09-01T01:24:54.869Z,46.08
2018-09-01T01:25:54.833Z,45.61
2018-09-01T01:26:54.793Z,44.53
2018-09-01T01:27:54.762Z,44.06
2018-09-01T01:28:54.725Z,43.96
2018-09-01T01:29:54.690Z,44.06
2018-09-01T01:30:54.647Z,43.58
2018-09-01T01:31:54.614Z,44.25
2018-09-01T01:32:54.575Z,43.87
2018-09-01T01:33:54.536Z,43.87
2018-09-01T01:34:54.502Z,43.39
2018-09-01T01:35:54.465Z,43.39
2018-09-01T01:36:54.434Z,43.58
2018-09-01T01:37:54.386Z,43.58
2018-09-01T01:38:54.349Z,43.79
2018-09-01T01:39:54.320Z,43.13
2018-09-01T01:40:54.312Z,43.77
2018-09-01T01:41:54.238Z,43.13
2018-09-01T01:42:54.204Z,43.03
2018-09-01T01:43:54.159Z,43.89
2018-09-01T01:44:54.126Z,43.13
2018-09-01T01:45:54.089Z,43.60
2018-09-01T01:46:54.057Z,43.98
2018-09-01T01:47:54.021Z,43.98
2018-09-01T01:48:53.975Z,44.08
2018-09-01T01:49:53.941Z,44.08
2018-09-01T01:50:53.899Z,43.98
2018-09-01T01:51:53.868Z,44.08
2018-09-01T01:52:53.845Z,43.77
2018-09-01T01:53:53.796Z,43.58
2018-09-01T01:54:53.757Z,43.60
2018-09-01T01:55:53.714Z,43.13
2018-09-01T01:56:53.679Z,42.63
2018-09-01T01:57:53.643Z,42.82
2018-09-01T01:58:53.604Z,43.20
2018-09-01T01:59:53.571Z,42.91
2018-09-01T02:00:53.533Z,42.91
2018-09-01T02:01:53.491Z,42.53
2018-09-01T02:02:53.456Z,42.72
2018-09-01T02:03:53.434Z,42.72
2018-09-01T02:04:53.383Z,42.44
2018-09-01T02:05:53.343Z,43.01
2018-09-01T02:06:53.309Z,42.44
2018-09-01T02:07:53.266Z,43.68
2018-09-01T02:08:53.233Z,43.39
2018-09-01T02:09:53.201Z,43.77
2018-09-01T02:10:53.153Z,43.49
2018-09-01T02:11:53.123Z,43.20
2018-09-01T02:12:53.081Z,42.82
2018-09-01T02:13:53.049Z,42.72
2018-09-01T02:14:53.010Z,42.44
2018-09-01T02:15:52.967Z,42.44
2018-09-01T02:16:52.931Z,41.77
2018-09-01T02:17:52.894Z,42.05
2018-09-01T02:18:52.862Z,41.48
2018-09-01T02:19:52.820Z,41.48
2018-09-01T02:20:52.785Z,41.58
2018-09-01T02:21:52.744Z,41.77
2018-09-01T02:22:52.706Z,42.24
2018-09-01T02:23:52.679Z,41.00
2018-09-01T02:24:52.633Z,40.24
2018-09-01T02:25:52.599Z,40.24
2018-09-01T02:26:52.566Z,39.48
2018-09-01T02:27:52.517Z,39.67
2018-09-01T02:28:52.484Z,40.15
2018-09-01T02:29:52.445Z,40.24
2018-09-01T02:30:52.411Z,40.53
2018-09-01T02:31:52.376Z,40.44
2018-09-01T02:32:52.340Z,41.67
2018-09-01T02:33:52.295Z,41.10
2018-09-01T02:34:52.255Z,41.58
2018-09-01T02:35:52.224Z,41.20
2018-09-01T02:36:52.189Z,41.00
2018-09-01T02:37:52.148Z,40.53
2018-09-01T02:38:52.111Z,40.15
2018-09-01T02:39:52.068Z,40.24
2018-09-01T02:40:52.033Z,40.05
2018-09-01T02:41:51.994Z,40.05
2018-09-01T02:42:51.954Z,39.67
2018-09-01T02:43:51.924Z,39.67
2018-09-01T02:44:51.883Z,40.05
2018-09-01T02:45:51.845Z,39.67
2018-09-01T02:46:51.813Z,40.15
2018-09-01T02:47:51.787Z,39.39
2018-09-01T02:48:51.733Z,39.29
2018-09-01T02:49:51.694Z,38.81
2018-09-01T02:50:51.660Z,38.05
2018-09-01T02:51:51.623Z,38.15
2018-09-01T02:52:51.585Z,37.38
2018-09-01T02:53:51.544Z,38.15
2018-09-01T02:54:51.514Z,37.76
2018-09-01T02:55:51.475Z,37.48
2018-09-01T02:56:51.440Z,38.15
2018-09-01T02:57:51.400Z,37.66
2018-09-01T02:58:51.365Z,37.10
2018-09-01T02:59:51.318Z,37.10
2018-09-01T03:00:51.288Z,37.76
2018-09-01T03:01:51.243Z,37.66
2018-09-01T03:02:51.204Z,37.48
2018-09-01T03:03:51.174Z,37.76
2018-09-01T03:04:51.132Z,36.90
2018-09-01T03:05:51.091Z,36.33
2018-09-01T03:06:51.051Z,36.22
2018-09-01T03:07:51.022Z,36.24
2018-09-01T03:08:50.999Z,35.95
2018-09-01T03:09:50.949Z,36.14
2018-09-01T03:10:50.908Z,35.84
2018-09-01T03:11:50.888Z,35.95
2018-09-01T03:12:50.830Z,36.43
2018-09-01T03:13:50.796Z,36.90
2018-09-01T03:14:50.762Z,36.43
2018-09-01T03:15:50.722Z,36.43
2018-09-01T03:16:50.681Z,36.51
2018-09-01T03:17:50.646Z,36.33
2018-09-01T03:18:50.611Z,36.12
2018-09-01T03:19:50.562Z,35.93
2018-09-01T03:20:50.526Z,36.14
2018-09-01T03:21:50.492Z,36.51
2018-09-01T03:22:50.456Z,36.60
2018-09-01T03:23:50.418Z,36.41
2018-09-01T03:24:50.377Z,36.51
2018-09-01T03:25:50.342Z,36.51
2018-09-01T03:26:50.297Z,36.51
2018-09-01T03:27:50.269Z,36.41
2018-09-01T03:28:50.229Z,36.79
2018-09-01T03:29:50.186Z,36.79
2018-09-01T03:30:50.153Z,36.69
2018-09-01T03:31:50.110Z,37.27
2018-09-01T03:32:50.073Z,37.08
2018-09-01T03:33:50.037Z,37.36
2018-09-01T03:34:49.994Z,37.08
2018-09-01T03:35:49.960Z,37.17
2018-09-01T03:36:49.922Z,36.41
2018-09-01T03:37:49.883Z,35.93
2018-09-01T03:38:49.842Z,36.12
2018-09-01T03:39:49.809Z,36.12
2018-09-01T03:40:49.773Z,35.93
2018-09-01T03:41:49.732Z,35.93
2018-09-01T03:42:49.696Z,36.32
2018-09-01T03:43:49.665Z,36.51
2018-09-01T03:44:49.617Z,36.32
2018-09-01T03:45:49.579Z,36.69
2018-09-01T03:46:49.539Z,36.69
2018-09-01T03:47:49.508Z,36.79
2018-09-01T03:48:49.472Z,36.88
2018-09-01T03:49:49.430Z,36.79
2018-09-01T03:50:49.393Z,36.60
2018-09-01T03:51:49.349Z,36.79
2018-09-01T03:52:49.314Z,36.79
2018-09-01T04:06:48.280Z,37.65
2018-09-01T04:07:48.197Z,37.65
2018-09-01T04:08:48.155Z,37.46
2018-09-01T04:09:48.119Z,37.65
2018-09-01T04:10:48.077Z,37.46
2018-09-01T04:11:48.037Z,37.63
2018-09-01T04:12:47.995Z,37.54
2018-09-01T04:13:47.954Z,37.82
2018-09-01T04:14:47.911Z,37.25
2018-09-01T04:15:47.877Z,36.77
2018-09-01T04:16:47.840Z,36.39
2018-09-01T04:17:47.793Z,36.58
2018-09-01T04:18:47.753Z,36.96
2018-09-01T04:19:47.727Z,36.68
2018-09-01T04:20:47.678Z,35.91
2018-09-01T04:21:47.647Z,35.82
2018-09-01T04:22:47.604Z,36.30
2018-09-01T04:23:47.568Z,36.20
2018-09-01T04:24:47.529Z,35.91
2018-09-01T04:25:47.484Z,36.01
2018-09-01T04:26:47.445Z,36.10
2018-09-01T04:27:47.404Z,35.25
2018-09-01T04:28:47.368Z,34.39
2018-09-01T04:29:47.331Z,35.15
2018-09-01T04:30:47.296Z,35.53
2018-09-01T04:31:47.265Z,35.63
2018-09-01T04:32:47.216Z,36.20
2018-09-01T04:33:47.182Z,35.82
2018-09-01T04:34:47.141Z,35.91
2018-09-01T04:35:47.116Z,35.35
2018-09-01T04:36:47.064Z,35.15
2018-09-01T04:37:47.024Z,35.72
2018-09-01T04:38:46.983Z,36.01
2018-09-01T04:39:46.947Z,35.91
2018-09-01T04:40:46.907Z,35.82
2018-09-01T04:41:46.871Z,36.10
2018-09-01T04:42:46.837Z,36.20
2018-09-01T04:43:46.806Z,35.44
2018-09-01T04:44:46.757Z,35.44
2018-09-01T04:45:46.719Z,35.06
2018-09-01T04:46:46.685Z,35.44
2018-09-01T04:47:46.651Z,35.91
2018-09-01T04:48:46.604Z,35.91
2018-09-01T04:49:46.564Z,36.20
2018-09-01T04:50:46.531Z,36.10
2018-09-01T04:51:46.491Z,35.63
2018-09-01T04:52:46.453Z,34.30
2018-09-01T04:53:46.417Z,34.30
2018-09-01T04:54:46.378Z,34.48
2018-09-01T04:55:46.340Z,34.01
2018-09-01T04:56:46.301Z,33.82
2018-09-01T04:57:46.259Z,33.53
2018-09-01T04:58:46.220Z,34.01
2018-09-01T04:59:46.184Z,34.30
2018-09-01T05:00:46.159Z,34.20
2018-09-01T05:01:46.113Z,34.39
2018-09-01T05:02:46.082Z,34.11
2018-09-01T05:03:46.072Z,34.67
2018-09-01T05:04:45.992Z,35.06
2018-09-01T05:05:45.956Z,35.44
2018-09-01T05:06:45.921Z,35.15
2018-09-01T05:07:45.882Z,35.25
2018-09-01T05:08:45.843Z,35.25
2018-09-01T05:09:45.802Z,35.06
2018-09-01T05:10:45.768Z,35.15
2018-09-01T05:11:45.725Z,35.15
2018-09-01T05:12:45.689Z,35.06
2018-09-01T05:13:45.651Z,35.35
2018-09-01T05:14:45.616Z,35.72
2018-09-01T05:15:45.579Z,35.44
2018-09-01T05:16:45.536Z,34.87
2018-09-01T05:17:45.497Z,34.58
2018-09-01T05:18:45.468Z,34.39
2018-09-01T05:19:45.428Z,34.48
2018-09-01T05:20:45.387Z,34.77
2018-09-01T05:21:45.344Z,35.25
2018-09-01T05:22:45.305Z,35.82
2018-09-01T05:23:45.281Z,35.93
2018-09-01T05:24:45.230Z,35.91
2018-09-01T05:25:45.202Z,35.44
2018-09-01T05:26:45.158Z,35.64
2018-09-01T05:27:45.180Z,36.12
2018-09-01T05:28:45.082Z,36.51
2018-09-01T05:29:45.041Z,36.51
2018-09-01T05:30:45.008Z,36.22
2018-09-01T05:31:44.966Z,35.93
2018-09-01T05:32:44.931Z,36.60
2018-09-01T05:33:44.890Z,35.46
2018-09-01T05:34:44.858Z,34.98
2018-09-01T05:35:44.812Z,34.98
2018-09-01T05:36:44.818Z,35.28
2018-09-01T05:37:44.738Z,34.88
2018-09-01T05:38:44.703Z,35.10
2018-09-01T05:39:44.673Z,35.38
2018-09-01T05:40:44.631Z,36.14
2018-09-01T05:41:44.585Z,36.71
2018-09-01T05:42:44.547Z,36.71
2018-09-01T05:43:44.567Z,37.76
2018-09-01T05:44:44.473Z,37.19
2018-09-01T05:45:44.443Z,37.29
2018-09-01T05:46:44.404Z,38.05
2018-09-01T05:47:44.363Z,39.19
2018-09-01T05:48:44.324Z,40.05
2018-09-01T05:49:44.284Z,40.05
2018-09-01T05:50:44.294Z,39.98
2018-09-01T05:51:44.212Z,40.36
2018-09-01T05:52:44.173Z,40.45
2018-09-01T05:53:44.133Z,40.36
2018-09-01T05:54:44.095Z,40.45
2018-09-01T05:55:44.057Z,40.83
2018-09-01T05:56:44.021Z,41.12
2018-09-01T05:57:43.984Z,41.31
2018-09-01T05:58:43.949Z,41.98
2018-09-01T05:59:43.912Z,42.65
2018-09-01T06:00:43.876Z,42.65
2018-09-01T06:01:43.832Z,42.96
2018-09-01T06:02:43.798Z,44.01
2018-09-01T06:03:43.760Z,44.08
2018-09-01T06:04:43.726Z,44.58
2018-09-01T06:05:43.686Z,44.58
2018-09-01T06:06:43.653Z,44.87
2018-09-01T06:07:43.608Z,44.87
2018-09-01T06:08:43.572Z,45.06
2018-09-01T06:09:43.537Z,45.06
2018-09-01T06:10:43.501Z,45.25
2018-09-01T06:11:43.465Z,45.15
2018-09-01T06:12:43.426Z,44.77
2018-09-01T06:13:43.385Z,44.20
2018-09-01T06:14:43.347Z,43.62
2018-09-01T06:15:43.311Z,42.96
2018-09-01T06:16:43.274Z,42.67
2018-09-01T06:17:43.387Z,43.72
2018-09-01T06:18:43.205Z,43.53
2018-09-01T06:19:43.167Z,42.77
2018-09-01T06:20:43.127Z,41.81
2018-09-01T06:21:43.095Z,41.43
2018-09-01T06:22:43.050Z,41.52
2018-09-01T06:23:43.059Z,41.62
2018-09-01T06:24:43.032Z,42.19
2018-09-01T06:25:42.939Z,41.81
2018-09-01T06:26:42.901Z,41.81
2018-09-01T06:27:42.866Z,41.62
2018-09-01T06:28:42.829Z,41.81
2018-09-01T06:29:42.798Z,41.71
2018-09-01T06:30:42.769Z,42.77
2018-09-01T06:31:42.723Z,42.67
2018-09-01T06:32:42.685Z,42.88
2018-09-01T06:33:42.645Z,42.88
2018-09-01T06:34:42.610Z,42.88
2018-09-01T06:35:42.571Z,43.74
2018-09-01T06:36:42.535Z,43.84
2018-09-01T06:37:42.571Z,44.41
2018-09-01T06:38:42.466Z,42.69
2018-09-01T06:39:42.425Z,42.40
2018-09-01T06:40:42.387Z,43.66
2018-09-01T06:41:42.356Z,43.76
2018-09-01T06:42:42.321Z,43.95
2018-09-01T06:43:42.289Z,44.05
2018-09-01T06:44:42.248Z,44.34
2018-09-01T06:45:42.206Z,42.81
2018-09-01T06:46:42.169Z,43.76
2018-09-01T06:47:42.132Z,43.86
2018-09-01T06:48:42.096Z,44.15
2018-09-01T06:49:42.065Z,44.34
2018-09-01T06:50:42.032Z,44.24
2018-09-01T06:51:41.992Z,44.72
2018-09-01T06:52:41.959Z,45.01
2018-09-01T06:53:41.915Z,44.81
2018-09-01T06:54:41.876Z,44.15
2018-09-01T06:55:41.845Z,43.95
2018-09-01T06:56:41.816Z,44.15
2018-09-01T06:57:41.773Z,45.01
2018-09-01T06:58:41.734Z,45.20
2018-09-01T06:59:41.695Z,45.29
2018-09-01T07:00:41.660Z,45.01
2018-09-01T07:01:41.626Z,44.24
2018-09-01T07:02:41.595Z,43.57
2018-09-01T07:03:41.560Z,43.76
2018-09-01T07:04:41.517Z,44.72
2018-09-01T07:05:41.519Z,44.34
2018-09-01T07:06:41.441Z,44.34
2018-09-01T07:07:41.408Z,44.72
2018-09-01T07:08:41.415Z,45.96
2018-09-01T07:09:41.338Z,45.58
2018-09-01T07:10:41.303Z,44.72
2018-09-01T07:11:41.262Z,45.20
2018-09-01T07:12:41.225Z,45.58
2018-09-01T07:13:41.191Z,45.48
2018-09-01T07:14:41.159Z,43.76
2018-09-01T07:15:41.126Z,44.24
2018-09-01T07:16:41.084Z,45.01
2018-09-01T07:17:41.045Z,45.29
2018-09-01T07:18:41.009Z,45.96
2018-09-01T07:19:40.976Z,45.87
2018-09-01T07:20:40.937Z,45.87
2018-09-01T07:21:40.907Z,44.72
2018-09-01T07:22:40.868Z,45.58
2018-09-01T07:23:40.832Z,44.72
2018-09-01T07:24:40.795Z,44.93
2018-09-01T07:25:40.756Z,43.88
2018-09-01T07:26:40.719Z,42.93
2018-09-01T07:27:40.691Z,44.17
2018-09-01T07:28:40.650Z,45.03
2018-09-01T07:29:40.612Z,44.45
2018-09-01T07:30:40.692Z,44.36
2018-09-01T07:31:40.540Z,45.03
2018-09-01T07:32:40.520Z,45.03
2018-09-01T07:33:40.469Z,44.07
2018-09-01T07:34:40.437Z,43.88
2018-09-01T07:35:40.405Z,44.17
2018-09-01T07:36:40.363Z,44.74
2018-09-01T07:37:40.326Z,45.03
2018-09-01T07:38:40.286Z,45.03
2018-09-01T07:39:40.255Z,45.51
2018-09-01T07:40:40.217Z,44.36
2018-09-01T07:41:40.184Z,45.60
2018-09-01T07:42:40.152Z,47.03
2018-09-01T07:43:40.107Z,47.71
2018-09-01T07:44:40.073Z,46.84
2018-09-01T07:45:40.038Z,46.94
2018-09-01T07:46:40.003Z,45.31
2018-09-01T07:47:39.973Z,46.27
2018-09-01T07:48:39.929Z,46.08
2018-09-01T07:49:39.894Z,46.46
2018-09-01T07:50:39.860Z,45.41
2018-09-01T07:51:39.822Z,45.41
2018-09-01T07:52:39.784Z,46.30
2018-09-01T07:53:39.750Z,45.89
2018-09-01T07:54:39.738Z,47.16
2018-09-01T07:55:39.679Z,45.91
2018-09-01T07:56:39.643Z,46.20
2018-09-01T07:57:39.609Z,46.20
2018-09-01T07:58:39.586Z,46.58
2018-09-01T07:59:39.539Z,46.39
2018-09-01T08:00:39.508Z,47.63
2018-09-01T08:01:39.462Z,48.30
2018-09-01T08:02:39.425Z,46.96
2018-09-01T08:03:39.396Z,46.87
2018-09-01T08:04:39.358Z,47.16
2018-09-01T08:05:39.323Z,47.73
2018-09-01T08:06:39.290Z,47.82
2018-09-01T08:07:39.250Z,48.59
2018-09-01T08:08:39.217Z,48.39
2018-09-01T08:09:39.182Z,49.74
2018-09-01T08:10:39.143Z,48.68
2018-09-01T08:11:39.117Z,49.64
2018-09-01T08:12:39.068Z,48.78
2018-09-01T08:13:39.096Z,49.55
2018-09-01T08:14:39.085Z,50.98
2018-09-01T08:15:38.968Z,50.89
2018-09-01T08:16:38.935Z,51.46
2018-09-01T08:17:38.904Z,50.79
2018-09-01T08:18:38.859Z,50.91
2018-09-01T08:19:38.824Z,50.24
2018-09-01T08:20:38.793Z,51.68
2018-09-01T08:21:40.734Z,51.77
2018-09-01T08:22:38.715Z,51.01
2018-09-01T08:23:38.681Z,51.01
2018-09-01T08:24:38.649Z,52.25
2018-09-01T08:25:38.617Z,50.34
2018-09-01T08:26:38.575Z,50.72
2018-09-01T08:27:38.540Z,51.58
2018-09-01T08:28:38.507Z,50.91
2018-09-01T08:29:38.465Z,50.81
2018-09-01T08:30:38.434Z,51.58
2018-09-01T08:31:38.399Z,52.06
2018-09-01T08:32:38.365Z,52.06
2018-09-01T08:33:38.393Z,53.11
2018-09-01T08:34:38.293Z,52.85
2018-09-01T08:35:38.276Z,52.75
2018-09-01T08:36:38.217Z,52.28
2018-09-01T08:37:38.188Z,52.37
2018-09-01T08:38:38.150Z,52.09
2018-09-01T08:39:38.116Z,53.23
2018-09-01T08:40:38.092Z,52.56
2018-09-01T08:41:38.045Z,52.28
2018-09-01T08:42:38.011Z,54.77
2018-09-01T08:43:37.973Z,54.38
2018-09-01T08:44:37.942Z,54.28
2018-09-01T08:45:37.910Z,54.57
2018-09-01T08:46:37.869Z,55.08
2018-09-01T08:47:37.833Z,54.99
2018-09-01T08:48:37.796Z,54.70
2018-09-01T08:49:37.775Z,53.93
2018-09-01T08:50:37.730Z,54.03
2018-09-01T08:51:37.697Z,54.12
2018-09-01T08:52:37.662Z,54.22
2018-09-01T08:53:37.621Z,54.99
2018-09-01T08:54:37.590Z,55.46
2018-09-01T08:55:37.560Z,55.65
2018-09-01T08:56:37.554Z,55.75
2018-09-01T08:57:37.486Z,56.32
2018-09-01T08:58:37.454Z,55.46
2018-09-01T08:59:37.417Z,56.61
2018-09-01T09:00:37.381Z,56.71
2018-09-01T09:01:37.341Z,56.61
2018-09-01T09:02:37.308Z,56.71
2018-09-01T09:03:37.276Z,55.97
2018-09-01T09:04:37.243Z,56.99
2018-09-01T09:05:37.227Z,57.41
2018-09-01T09:06:37.168Z,59.04
2018-09-01T09:07:37.135Z,58.75
2018-09-01T09:08:37.096Z,58.56
2018-09-01T09:09:37.068Z,58.56
2018-09-01T09:10:37.033Z,58.94
2018-09-01T09:11:37.065Z,58.56
2018-09-01T09:12:36.968Z,58.56
2018-09-01T09:13:36.923Z,58.84
2018-09-01T09:14:36.892Z,58.94
2018-09-01T09:15:36.856Z,58.94
2018-09-01T09:16:36.817Z,59.33
2018-09-01T09:17:36.791Z,59.90
2018-09-01T09:18:36.809Z,59.23
2018-09-01T09:19:36.717Z,58.65
2018-09-01T09:20:36.682Z,59.45
2018-09-01T09:21:36.657Z,58.97
2018-09-01T09:22:36.615Z,59.83
2018-09-01T09:23:36.581Z,59.96
2018-09-01T09:24:36.547Z,61.02
2018-09-01T09:25:36.512Z,61.02
2018-09-01T09:26:36.475Z,59.93
2018-09-01T09:27:36.441Z,60.15
2018-09-01T09:28:36.401Z,60.70
2018-09-01T09:29:36.374Z,60.70
2018-09-01T09:30:36.343Z,60.03
2018-09-01T09:31:36.307Z,60.89
2018-09-01T09:32:36.272Z,61.56
2018-09-01T09:33:36.246Z,62.71
2018-09-01T09:34:36.221Z,61.69
2018-09-01T09:35:36.175Z,62.16
2018-09-01T09:36:36.140Z,62.36
2018-09-01T09:37:36.094Z,62.16
2018-09-01T09:38:36.064Z,63.51
2018-09-01T09:39:36.028Z,64.09
2018-09-01T09:40:35.991Z,64.18
2018-09-01T09:41:35.963Z,64.95
2018-09-01T09:42:35.931Z,66.96
2018-09-01T09:43:35.895Z,66.67
2018-09-01T09:44:35.860Z,66.58
2018-09-01T09:45:35.819Z,66.58
2018-09-01T09:46:35.790Z,67.06
2018-09-01T09:47:35.756Z,67.73
2018-09-01T09:48:35.720Z,67.44
2018-09-01T09:49:35.690Z,67.44
2018-09-01T09:50:35.653Z,66.58
2018-09-01T09:51:35.618Z,67.25
2018-09-01T09:52:35.588Z,67.63
2018-09-01T09:53:35.559Z,67.83
2018-09-01T09:54:35.518Z,67.67
2018-09-01T09:55:35.490Z,67.76
2018-09-01T09:56:35.450Z,68.82
2018-09-01T09:57:35.410Z,69.01
2018-09-01T09:58:35.382Z,68.53
2018-09-01T09:59:35.348Z,70.84
2018-09-01T10:00:35.308Z,67.76
2018-09-01T10:01:35.280Z,68.63
2018-09-01T10:02:35.244Z,69.20
2018-09-01T10:03:35.225Z,69.40
2018-09-01T10:04:35.178Z,69.68
2018-09-01T10:05:35.201Z,69.40
2018-09-01T10:06:35.108Z,69.30
2018-09-01T10:21:07.652Z,69.78
2018-09-01T10:22:07.569Z,69.20
2018-09-01T10:23:07.532Z,68.82
2018-09-01T10:24:07.545Z,67.76
2018-09-01T10:25:07.448Z,68.28
2018-09-01T10:26:07.410Z,68.66
2018-09-01T10:27:07.473Z,69.34
2018-09-01T10:28:07.399Z,69.05
2018-09-01T10:29:07.312Z,69.46
2018-09-01T10:30:07.273Z,67.83
2018-09-01T10:31:07.234Z,67.83
2018-09-01T10:32:07.197Z,67.61
2018-09-01T10:33:07.164Z,67.54
2018-09-01T10:34:07.130Z,67.22
2018-09-01T10:35:07.095Z,66.84
2018-09-01T10:36:07.056Z,67.22
2018-09-01T10:37:07.028Z,67.70
2018-09-01T10:38:06.989Z,67.32
2018-09-01T10:39:06.960Z,67.41
2018-09-01T10:40:06.925Z,67.13
2018-09-01T10:41:06.891Z,67.41
2018-09-01T10:42:06.855Z,68.85
2018-09-01T10:43:06.819Z,68.47
2018-09-01T10:44:06.790Z,68.85
2018-09-01T10:45:06.747Z,69.24
2018-09-01T10:46:06.714Z,69.62
2018-09-01T10:47:06.689Z,69.14
2018-09-01T10:48:06.648Z,69.24
2018-09-01T10:49:06.622Z,68.28
2018-09-01T10:50:06.578Z,68.37
2018-09-01T10:51:06.544Z,68.47
2018-09-01T10:52:06.562Z,67.13
2018-09-01T10:53:06.481Z,67.13
2018-09-01T10:54:06.451Z,66.36
2018-09-01T10:55:06.412Z,64.82
2018-09-01T10:56:06.375Z,64.34
2018-09-01T10:57:06.346Z,65.08
2018-09-01T10:58:06.313Z,64.40
2018-09-01T10:59:06.311Z,64.02
2018-09-01T11:00:06.244Z,64.40
2018-09-01T11:01:06.211Z,64.50
2018-09-01T11:02:06.185Z,64.82
2018-09-01T11:03:06.158Z,65.40
2018-09-01T11:04:06.114Z,65.01
2018-09-01T11:05:06.132Z,64.15
2018-09-01T11:06:06.038Z,64.09
2018-09-01T11:07:06.007Z,61.65
2018-09-01T11:08:05.976Z,62.61
2018-09-01T11:09:05.948Z,62.71
2018-09-01T11:10:05.913Z,62.13
2018-09-01T11:11:05.877Z,62.35
2018-09-01T11:12:05.841Z,62.81
2018-09-01T11:13:05.813Z,63.51
2018-09-01T11:14:05.775Z,63.60
2018-09-01T11:15:05.742Z,62.55
2018-09-01T11:16:05.711Z,62.07
2018-09-01T11:17:05.678Z,62.07
2018-09-01T11:18:05.645Z,61.97
2018-09-01T11:19:05.607Z,62.68
2018-09-01T11:20:05.671Z,62.00
2018-09-01T11:21:05.538Z,60.85
2018-09-01T11:22:05.511Z,60.34
2018-09-01T11:23:05.478Z,59.47
2018-09-01T11:24:05.438Z,59.47
2018-09-01T11:25:05.416Z,59.34
2018-09-01T11:26:05.371Z,58.87
2018-09-01T11:27:05.339Z,59.34
2018-09-01T11:28:05.329Z,59.32
2018-09-01T11:29:05.278Z,59.64
2018-09-01T11:30:05.243Z,60.31
2018-09-01T11:31:05.207Z,61.08
2018-09-01T11:32:05.173Z,61.20
2018-09-01T11:33:05.137Z,59.47
2018-09-01T11:34:05.124Z,58.32
2018-09-01T11:35:05.074Z,57.55
2018-09-01T11:36:05.053Z,58.45
2018-09-01T11:37:05.012Z,57.48
2018-09-01T11:38:04.968Z,57.87
2018-09-01T11:39:04.938Z,58.35
2018-09-01T11:40:04.907Z,58.76
2018-09-01T11:41:04.878Z,57.99
2018-09-01T11:42:04.859Z,57.60
2018-09-01T11:43:05.000Z,58.37
2018-09-01T11:44:04.774Z,58.57
2018-09-01T11:45:04.741Z,58.57
2018-09-01T11:46:04.707Z,59.37
2018-09-01T11:47:04.677Z,59.17
2018-09-01T11:48:04.648Z,60.33
2018-09-01T11:49:04.615Z,59.47
2018-09-01T11:50:04.581Z,59.47
2018-09-01T11:51:04.556Z,60.33
2018-09-01T11:52:04.544Z,59.75
2018-09-01T11:53:04.518Z,59.05
2018-09-01T11:54:04.452Z,60.27
2018-09-01T11:55:04.416Z,60.08
2018-09-01T11:56:04.383Z,61.11
2018-09-01T11:57:04.349Z,61.30
2018-09-01T11:58:04.320Z,61.49
2018-09-01T11:59:04.284Z,61.68
2018-09-01T12:00:04.256Z,62.07
2018-09-01T12:01:04.224Z,62.07
2018-09-01T12:02:04.194Z,62.26
2018-09-01T12:03:04.157Z,62.35
2018-09-01T12:04:04.122Z,63.12
2018-09-01T12:05:04.088Z,62.84
2018-09-01T12:06:04.055Z,62.26
2018-09-01T12:07:04.024Z,61.87
2018-09-01T12:08:03.994Z,61.30
2018-09-01T12:09:04.024Z,61.40
2018-09-01T12:10:03.927Z,61.68
2018-09-01T12:11:03.892Z,61.30
2018-09-01T12:12:03.900Z,60.34
2018-09-01T12:13:03.834Z,59.79
2018-09-01T12:14:03.816Z,59.95
2018-09-01T12:15:03.765Z,60.24
2018-09-01T12:16:03.730Z,61.04
2018-09-01T12:17:03.698Z,60.27
2018-09-01T12:18:03.666Z,60.49
2018-09-01T12:19:03.630Z,59.05
2018-09-01T12:20:03.599Z,58.02
2018-09-01T12:21:03.571Z,58.98
2018-09-01T12:22:03.541Z,57.42
2018-09-01T12:23:03.499Z,58.09
2018-09-01T12:24:03.464Z,58.09
2018-09-01T12:25:03.431Z,57.70
2018-09-01T12:26:03.404Z,57.70
2018-09-01T12:27:03.372Z,57.90
2018-09-01T12:28:03.367Z,57.90
2018-09-01T12:29:03.307Z,58.28
2018-09-01T12:30:03.275Z,57.90
2018-09-01T12:31:03.236Z,57.97
2018-09-01T12:32:03.207Z,57.48
2018-09-01T12:33:03.174Z,57.58
2018-09-01T12:34:03.148Z,58.73
2018-09-01T12:35:03.110Z,57.77
2018-09-01T12:36:03.075Z,58.06
2018-09-01T12:37:03.070Z,57.97
2018-09-01T12:38:03.006Z,57.77
2018-09-01T12:39:02.995Z,57.80
2018-09-01T12:40:02.946Z,57.32
2018-09-01T12:41:02.920Z,57.70
2018-09-01T12:42:02.953Z,57.92
2018-09-01T12:43:02.847Z,57.15
2018-09-01T12:44:02.815Z,57.06
2018-09-01T12:45:02.785Z,56.96
2018-09-01T12:46:02.752Z,57.35
2018-09-01T12:47:02.717Z,57.64
2018-09-01T12:48:02.685Z,57.99
2018-09-01T12:49:02.657Z,57.77
2018-09-01T12:50:02.616Z,58.92
2018-09-01T12:51:02.585Z,58.73
2018-09-01T12:52:02.555Z,59.02
2018-09-01T12:53:02.548Z,57.58
2018-09-01T12:54:02.492Z,57.77
2018-09-01T12:55:02.460Z,57.77
2018-09-01T12:56:02.423Z,57.58
2018-09-01T12:57:02.388Z,57.99
2018-09-01T12:58:02.358Z,56.84
2018-09-01T12:59:02.328Z,55.01
2018-09-01T13:00:02.291Z,55.59
2018-09-01T13:01:02.258Z,55.13
2018-09-01T13:02:02.225Z,55.52
2018-09-01T13:03:02.194Z,55.13
2018-09-01T13:04:02.164Z,54.56
2018-09-01T13:05:02.134Z,55.33
2018-09-01T13:06:02.103Z,55.13
2018-09-01T13:07:02.072Z,55.04
2018-09-01T13:08:02.078Z,55.52
2018-09-01T13:09:02.000Z,55.71
2018-09-01T13:10:01.967Z,54.36
2018-09-01T13:11:01.935Z,55.33
2018-09-01T13:12:01.909Z,55.40
2018-09-01T13:13:01.878Z,55.59
2018-09-01T13:14:01.836Z,55.20
2018-09-01T13:15:01.809Z,56.55
2018-09-01T13:16:01.776Z,56.71
2018-09-01T13:17:01.751Z,57.00
2018-09-01T13:18:01.715Z,57.48
2018-09-01T13:19:01.679Z,57.48